createdAt,value
2023-03-03T00:04:28.232Z,-0.17
2023-03-03T00:09:52.273Z,-0.26
2023-03-03T00:15:24.288Z,-0.26
2023-03-03T00:20:55.261Z,-0.27
2023-03-03T00:26:30.283Z,-0.39
2023-03-03T00:31:54.361Z,-0.43
2023-03-03T00:37:35.360Z,-0.52
2023-03-03T00:43:04.250Z,-0.56
2023-03-03T00:48:33.279Z,-0.63
2023-03-03T00:54:00.267Z,-0.71
2023-03-03T00:59:25.273Z,-0.71
2023-03-03T01:04:58.303Z,-0.74
2023-03-03T01:10:26.285Z,-0.75
2023-03-03T01:15:51.296Z,-0.87
2023-03-03T01:21:16.264Z,-0.87
2023-03-03T01:26:43.315Z,-1.00
2023-03-03T01:32:08.303Z,-1.04
2023-03-03T01:37:33.306Z,-1.09
2023-03-03T01:43:01.296Z,-1.12
2023-03-03T01:48:30.265Z,-1.22
2023-03-03T01:53:59.302Z,-1.26
2023-03-03T01:59:29.295Z,-1.27
2023-03-03T02:04:55.311Z,-1.29
2023-03-03T02:10:22.309Z,-1.38
2023-03-03T02:15:50.370Z,-1.42
2023-03-03T02:21:22.303Z,-1.38
2023-03-03T02:26:51.297Z,-1.33
2023-03-03T02:32:16.404Z,-1.32
2023-03-03T02:37:41.371Z,-1.34
2023-03-03T02:43:09.336Z,-1.40
2023-03-03T02:48:34.381Z,-1.36
2023-03-03T02:53:59.313Z,-1.38
2023-03-03T02:59:28.304Z,-1.41
2023-03-03T03:05:06.332Z,-1.43
2023-03-03T03:10:31.336Z,-1.47
2023-03-03T03:16:01.332Z,-1.51
2023-03-03T03:21:26.354Z,-1.69
2023-03-03T03:26:51.369Z,-1.81
2023-03-03T03:32:21.359Z,-1.86
2023-03-03T03:37:45.315Z,-1.82
2023-03-03T03:43:10.323Z,-1.81
2023-03-03T03:48:37.351Z,-1.77
2023-03-03T03:54:04.360Z,-1.80
2023-03-03T03:59:30.345Z,-1.79
2023-03-03T04:05:04.321Z,-1.78
2023-03-03T04:10:30.419Z,-1.81
2023-03-03T04:15:57.405Z,-1.81
2023-03-03T04:21:25.359Z,-1.76
2023-03-03T04:26:50.405Z,-1.72
2023-03-03T04:32:15.550Z,-1.77
2023-03-03T04:37:43.354Z,-1.81
2023-03-03T04:43:08.382Z,-1.82
2023-03-03T04:48:33.400Z,-1.88
2023-03-03T04:54:01.381Z,-1.93
2023-03-03T04:59:26.409Z,-2.06
2023-03-03T05:04:57.469Z,-2.12
2023-03-03T05:10:25.382Z,-2.19
2023-03-03T05:15:50.381Z,-2.30
2023-03-03T05:21:16.394Z,-2.31
2023-03-03T05:26:43.382Z,-2.40
2023-03-03T05:32:09.427Z,-2.46
2023-03-03T05:37:33.406Z,-2.48
2023-03-03T05:43:01.432Z,-2.51
2023-03-03T05:48:25.423Z,-2.45
2023-03-03T05:53:50.354Z,-2.38
2023-03-03T05:59:17.384Z,-2.35
2023-03-03T06:04:48.379Z,-2.29
2023-03-03T06:10:14.403Z,-2.34
2023-03-03T06:15:45.429Z,-2.40
2023-03-03T06:21:10.376Z,-2.43
2023-03-03T06:26:34.402Z,-2.34
2023-03-03T06:32:02.519Z,-2.29
2023-03-03T06:37:27.381Z,-2.23
2023-03-03T06:42:52.415Z,-2.18
2023-03-03T06:48:19.396Z,-2.27
2023-03-03T06:53:44.384Z,-2.27
2023-03-03T06:59:12.400Z,-2.22
2023-03-03T07:04:41.417Z,-2.23
2023-03-03T07:10:07.432Z,-2.18
2023-03-03T07:15:39.479Z,-2.09
2023-03-03T07:21:06.405Z,-2.07
2023-03-03T07:26:37.421Z,-2.13
2023-03-03T07:32:03.449Z,-2.13
2023-03-03T07:37:40.416Z,-2.27
2023-03-03T07:43:05.429Z,-2.37
2023-03-03T07:48:36.441Z,-2.38
2023-03-03T07:54:03.442Z,-2.42
2023-03-03T07:59:32.539Z,-2.32
2023-03-03T08:04:59.553Z,-2.41
2023-03-03T08:10:45.514Z,-2.48
2023-03-03T08:16:15.511Z,-2.32
2023-03-03T08:21:47.422Z,-2.20
2023-03-03T08:27:15.444Z,-2.25
2023-03-03T08:32:40.478Z,-2.17
2023-03-03T08:38:05.481Z,-2.06
2023-03-03T08:43:32.416Z,-2.04
2023-03-03T08:48:58.421Z,-2.14
2023-03-03T08:54:23.429Z,-2.02
2023-03-03T08:59:51.455Z,-2.05
2023-03-03T09:05:15.544Z,-2.19
2023-03-03T09:10:42.420Z,-2.28
2023-03-03T09:16:09.505Z,-2.20
2023-03-03T09:21:40.464Z,-2.08
2023-03-03T09:27:05.473Z,-2.11
2023-03-03T09:32:44.487Z,-2.19
2023-03-03T09:38:09.519Z,-2.06
2023-03-03T09:43:46.444Z,-2.01
2023-03-03T09:49:26.563Z,-1.97
2023-03-03T09:55:02.448Z,-1.91
2023-03-03T10:00:46.473Z,-1.75
2023-03-03T10:06:29.517Z,-1.62
2023-03-03T10:12:00.473Z,-1.40
2023-03-03T10:17:41.553Z,-1.27
2023-03-03T10:23:27.615Z,-1.18
2023-03-03T10:29:24.475Z,-1.16
2023-03-03T10:35:04.529Z,-1.10
2023-03-03T10:40:42.479Z,-1.07
2023-03-03T10:46:21.487Z,-1.12
2023-03-03T10:51:53.499Z,-0.95
2023-03-03T10:57:29.469Z,-0.99
2023-03-03T11:03:05.538Z,-0.91
2023-03-03T11:08:36.460Z,-0.93
2023-03-03T11:14:11.499Z,-0.93
2023-03-03T11:20:03.696Z,-0.81
2023-03-03T11:25:43.487Z,-0.79
2023-03-03T11:31:22.509Z,-0.64
2023-03-03T11:36:50.501Z,-0.56
2023-03-03T11:42:28.532Z,-0.55
2023-03-03T11:48:12.522Z,-0.59
2023-03-03T11:53:58.518Z,-0.44
2023-03-03T11:59:52.502Z,-0.34
2023-03-03T12:05:29.553Z,-0.29
2023-03-03T12:11:00.507Z,-0.37
2023-03-03T12:16:31.518Z,-0.35
2023-03-03T12:22:18.567Z,-0.24
2023-03-03T12:27:51.605Z,-0.05
2023-03-03T12:33:29.490Z,0.06
2023-03-03T12:39:04.532Z,0.10
2023-03-03T12:44:37.517Z,0.06
2023-03-03T12:50:17.518Z,0.15
2023-03-03T12:55:51.544Z,0.21
2023-03-03T13:01:34.525Z,0.24
2023-03-03T13:07:13.549Z,0.20
2023-03-03T13:12:49.577Z,0.30
2023-03-03T13:18:36.537Z,0.40
2023-03-03T13:24:07.557Z,0.40
2023-03-03T13:29:38.527Z,0.42
2023-03-03T13:35:11.559Z,0.49
2023-03-03T13:40:40.558Z,0.44
2023-03-03T13:46:17.562Z,0.39
2023-03-03T13:51:52.541Z,0.38
2023-03-03T13:57:34.561Z,0.43
2023-03-03T14:03:37.524Z,0.34
2023-03-03T14:09:22.566Z,0.38
2023-03-03T14:14:57.563Z,0.39
2023-03-03T14:20:33.571Z,0.42
2023-03-03T14:26:13.570Z,0.48
2023-03-03T14:31:39.601Z,0.52
2023-03-03T14:37:05.571Z,0.49
2023-03-03T14:42:51.592Z,0.42
2023-03-03T14:48:26.767Z,0.37
2023-03-03T14:53:54.610Z,0.34
2023-03-03T14:59:37.565Z,0.32
2023-03-03T15:05:28.595Z,0.33
2023-03-03T15:10:54.617Z,0.37
2023-03-03T15:16:27.634Z,0.37
2023-03-03T15:22:01.572Z,0.29
2023-03-03T15:27:34.567Z,0.35
2023-03-03T15:33:08.671Z,0.33
2023-03-03T15:38:44.606Z,0.34
2023-03-03T15:44:21.601Z,0.33
2023-03-03T15:50:09.641Z,0.34
2023-03-03T15:55:47.580Z,0.32
2023-03-03T16:01:22.636Z,0.34
2023-03-03T16:07:06.735Z,0.33
2023-03-03T16:12:40.647Z,0.30
2023-03-03T16:18:12.604Z,0.31
2023-03-03T16:23:55.602Z,0.24
2023-03-03T16:29:37.718Z,0.22
2023-03-03T16:35:07.629Z,0.18
2023-03-03T16:40:38.597Z,0.14
2023-03-03T16:46:08.687Z,0.02
2023-03-03T16:51:50.602Z,0.03
2023-03-03T16:57:30.649Z,0.03
2023-03-03T17:03:36.604Z,-0.01
2023-03-03T17:09:32.969Z,-0.08
2023-03-03T17:15:13.639Z,-0.05
2023-03-03T17:20:47.637Z,-0.05
2023-03-03T17:26:24.622Z,-0.03
2023-03-03T17:32:01.687Z,-0.10
2023-03-03T17:37:40.614Z,-0.13
2023-03-03T17:43:14.612Z,-0.09
2023-03-03T17:49:06.621Z,-0.09
2023-03-03T17:54:41.636Z,-0.18
2023-03-03T18:00:27.661Z,-0.16
2023-03-03T18:06:22.651Z,-0.21
2023-03-03T18:12:01.627Z,-0.22
2023-03-03T18:17:43.641Z,-0.22
2023-03-03T18:23:10.642Z,-0.28
2023-03-03T18:28:52.637Z,-0.28
2023-03-03T18:34:22.755Z,-0.24
2023-03-03T18:39:55.678Z,-0.29
2023-03-03T18:45:52.680Z,-0.26
2023-03-03T18:51:17.679Z,-0.28
2023-03-03T18:57:02.633Z,-0.35
2023-03-03T19:02:38.665Z,-0.36
2023-03-03T19:08:08.657Z,-0.40
2023-03-03T19:13:53.708Z,-0.42
2023-03-03T19:19:23.942Z,-0.41
2023-03-03T19:24:48.664Z,-0.42
2023-03-03T19:30:35.660Z,-0.45
2023-03-03T19:36:23.663Z,-0.48
2023-03-03T19:42:06.654Z,-0.45
2023-03-03T19:47:45.677Z,-0.48
2023-03-03T19:53:21.662Z,-0.48
2023-03-03T19:58:55.698Z,-0.52
2023-03-03T20:04:34.779Z,-0.50
2023-03-03T20:10:07.685Z,-0.50
2023-03-03T20:15:35.662Z,-0.49
2023-03-03T20:21:16.683Z,-0.52
2023-03-03T20:26:46.696Z,-0.50
2023-03-03T20:32:21.717Z,-0.43
2023-03-03T20:37:59.681Z,-0.46
2023-03-03T20:43:44.699Z,-0.41
2023-03-03T20:49:19.719Z,-0.39
2023-03-03T20:54:55.689Z,-0.34
2023-03-03T21:00:27.701Z,-0.33
2023-03-03T21:06:13.784Z,-0.32
2023-03-03T21:11:53.796Z,-0.35
2023-03-03T21:17:41.719Z,-0.36
2023-03-03T21:23:08.713Z,-0.35
2023-03-03T21:28:39.722Z,-0.32
2023-03-03T21:34:09.166Z,-0.37
2023-03-03T21:40:00.695Z,-0.35
2023-03-03T21:45:30.726Z,-0.31
2023-03-03T21:50:56.731Z,-0.21
2023-03-03T21:56:22.700Z,-0.11
2023-03-03T22:01:49.826Z,-0.13
2023-03-03T22:07:20.774Z,-0.11
2023-03-03T22:12:45.727Z,-0.13
2023-03-03T22:18:12.732Z,-0.12
2023-03-03T22:23:37.724Z,-0.16
2023-03-03T22:29:01.756Z,-0.12
2023-03-03T22:34:22.743Z,-0.08
2023-03-03T22:39:47.893Z,-0.10
2023-03-03T22:45:11.732Z,-0.11
2023-03-03T22:50:39.724Z,-0.19
2023-03-03T22:56:03.757Z,-0.22
2023-03-03T23:01:28.735Z,-0.24
2023-03-03T23:07:03.749Z,-0.16
2023-03-03T23:12:28.774Z,-0.22
2023-03-03T23:17:52.780Z,-0.26
2023-03-03T23:23:20.748Z,-0.25
2023-03-03T23:28:44.762Z,-0.23
2023-03-03T23:34:09.770Z,-0.27
2023-03-03T23:39:36.869Z,-0.34
2023-03-03T23:45:01.803Z,-0.27
2023-03-03T23:50:28.741Z,-0.32
2023-03-03T23:55:56.755Z,-0.30
